Aérodrome :
LOGIN :

S'inscrire | Disclaimer

   EN    FR    IT 

 










Légende :    VFR   VFR Marginal   IFR   IFR Intensif   IFR Très Intensif
Visi : 
Plafond : 
>= 8 km
>= 3000ft
5 à 8 km
1000 à 3000 ft
1500m à 5 km
500 à 1000 ft
800 à 1500m
200 à 500 ft
< 800m
< 200 ft
Symboles :   Orages  Brouillard  Fortes neiges  Fortes précipitations  Vent > 20 kt
SIGMETs :   Divers  Orages  Givrage  Turbulence  Onde Orograph.  Cendres Volcan.







- Altitude de l'aérodrome : 17 ft
- Code IATA : GRS


LIRS - Grosseto

DERNIER METAR :
  • 222155Z 09005KT 7000 -RA FEW010 SCT025 02/00 Q1003 RMK OVC BKN070 VIS MIN 7000 WIND THR03 10006KT WIND THR21 10005KT WHT

METARs EXPIRÉS :
  • 222055Z 02002KT 6000 -RA FEW010 BKN025 02/00 Q1003 RMK OVC VIS MIN 6000 WIND THR03 03002KT WIND THR21 31002KT WHT
  • 221955Z 07006KT 9999 FEW010 BKN040 03/01 Q1003 RMK OVC VIS MIN 7000 WIND THR03 08004KT WIND THR21 08006KT WHT

TAF TAF LIRS
Valide du 22 à 21h jusqu'au 23 à 06h UTC


222000Z 2221/2306 06006KT 8000 SCT020 BKN035
TEMPO 2221/2224 5000 RA
Pas de NOTAMs connus pour ce terrain.



MET'MAP, la Météo Aéronautique d'un coup d'oeil ! - Copyright ORBIFLY Décembre 2007 - Disclaimer

ORBIFLY MET'MAP TEAM :

Programmation & Développement : Alexandra Zaïnal
Conception & Développement : Baudouin d'Aumeries
Co-Programmation & Développement : Marc-Olivier Méhu
Soutien technique & logistique : Manuel Goepfert

Contact : metmap@orbifly.com




SOURCES & CREDITS :

   NOAA